Time;durP1;ratioP1;P1;durP2;ratioP2;P2;SDS_P1;SDS_P2;PMS_P1;PMS_P2;Temp;Humidity;BMP_temperature;BMP_pressure;BME280_temperature;BME280_humidity;BME280_pressure;Samples;Min_cycle;Max_cycle;Signal;HPM_P1;HPM_P2
2022/02/01 00:08:09;;;;;;;4.20;0.98;;;7.90;71.90;;;;;;2526478;54;20946;-81
2022/02/01 00:11:28;;;;;;;4.78;0.82;;;8.00;72.00;;;;;;2538178;54;22108;-81
2022/02/01 00:14:11;;;;;;;3.72;0.70;;;7.90;71.90;;;;;;2314800;54;21633;-81
2022/02/01 00:34:34;;;;;;;3.67;1.02;;;7.90;72.60;;;;;;2293632;54;21056;-81
2022/02/01 00:37:04;;;;;;;4.78;1.25;;;7.90;72.00;;;;;;2527185;54;20993;-82
2022/02/01 00:39:42;;;;;;;5.93;1.70;;;7.90;72.00;;;;;;2527298;54;21267;-81
2022/02/01 00:42:10;;;;;;;5.62;1.42;;;7.90;72.00;;;;;;2293544;54;20922;-81
2022/02/01 00:44:39;;;;;;;9.98;3.35;;;7.90;72.00;;;;;;2526533;54;21810;-80
2022/02/01 00:47:06;;;;;;;11.55;2.95;;;7.90;71.90;;;;;;2293584;54;20956;-81
2022/02/01 00:49:34;;;;;;;66.90;18.92;;;7.90;72.10;;;;;;2526144;54;20930;-81
2022/02/01 00:52:00;;;;;;;41.42;12.37;;;7.90;72.00;;;;;;2533580;54;20996;-81
2022/02/01 00:54:26;;;;;;;45.95;14.77;;;7.90;72.00;;;;;;2301725;54;21960;-81
2022/02/01 00:56:53;;;;;;;23.60;9.00;;;7.90;72.00;;;;;;2293876;54;21040;-80
2022/02/01 00:59:19;;;;;;;27.67;9.60;;;7.90;71.90;;;;;;2295158;54;21412;-81
2022/02/01 01:01:45;;;;;;;15.73;6.72;;;8.00;72.10;;;;;;2527278;54;20913;-82
2022/02/01 01:04:12;;;;;;;20.20;7.90;;;7.90;71.90;;;;;;2526203;54;20929;-82
2022/02/01 01:06:38;;;;;;;29.98;12.07;;;8.00;72.00;;;;;;2296483;54;20942;-81
2022/02/01 01:09:04;;;;;;;21.25;7.93;;;8.00;72.10;;;;;;2306474;54;20941;-80
2022/02/01 01:11:31;;;;;;;14.95;5.55;;;8.00;72.00;;;;;;2527202;54;21024;-81
2022/02/01 01:14:43;;;;;;;11.27;4.22;;;8.00;72.00;;;;;;2290755;54;21018;-81
2022/02/01 01:43:50;;;;;;;5.05;1.10;;;7.90;71.70;;;;;;2527298;54;21152;-82
2022/02/01 01:52:49;;;;;;;4.72;1.23;;;7.90;71.70;;;;;;2317334;54;21459;-81
2022/02/01 01:55:16;;;;;;;5.80;1.10;;;7.90;71.70;;;;;;2541819;54;20949;-82
2022/02/01 01:57:42;;;;;;;3.72;0.82;;;7.90;71.60;;;;;;2296444;54;21499;-81
2022/02/01 02:00:18;;;;;;;7.07;1.25;;;7.90;71.70;;;;;;2293855;54;20922;-82
2022/02/01 02:02:45;;;;;;;6.00;1.27;;;7.80;71.60;;;;;;2293892;54;21052;-81
2022/02/01 02:05:11;;;;;;;5.37;1.00;;;7.80;71.60;;;;;;2292878;54;20942;-81
2022/02/01 02:07:37;;;;;;;8.07;1.42;;;7.80;71.60;;;;;;2293719;54;20909;-80
2022/02/01 02:10:05;;;;;;;5.37;1.10;;;7.80;71.60;;;;;;2526398;54;20985;-81
2022/02/01 02:12:59;;;;;;;4.97;1.20;;;7.80;71.70;;;;;;2293689;54;20961;-82
2022/02/01 02:15:36;;;;;;;7.10;1.20;;;7.80;71.70;;;;;;2293285;54;21077;-81
2022/02/01 02:18:02;;;;;;;6.95;1.40;;;7.80;71.60;;;;;;2516681;54;21001;-81
2022/02/01 02:20:39;;;;;;;5.62;1.30;;;7.80;71.80;;;;;;2294000;54;20978;-82
2022/02/01 02:23:07;;;;;;;6.85;1.15;;;7.80;71.40;;;;;;2526914;54;21766;-81
2022/02/01 02:25:36;;;;;;;8.73;1.77;;;7.80;71.70;;;;;;2527029;54;20910;-81
2022/02/01 02:28:03;;;;;;;4.15;1.17;;;7.80;71.70;;;;;;2293970;54;21005;-81
2022/02/01 02:30:29;;;;;;;3.17;1.33;;;7.80;71.70;;;;;;2311322;54;20929;-81
2022/02/01 02:33:01;;;;;;;7.35;1.35;;;7.80;71.80;;;;;;2293981;54;20945;-81
2022/02/01 02:35:31;;;;;;;5.47;1.35;;;7.80;71.70;;;;;;2311158;54;20941;-80
2022/02/01 02:37:58;;;;;;;5.25;1.30;;;7.80;71.80;;;;;;2294194;54;21543;-81
2022/02/01 02:41:29;;;;;;;4.72;1.08;;;7.80;71.70;;;;;;2526747;54;21455;-81
2022/02/01 02:46:46;;;;;;;5.03;1.30;;;7.80;71.60;;;;;;2293373;54;20913;-80
2022/02/01 02:49:15;;;;;;;5.05;1.27;;;7.80;71.50;;;;;;2293403;54;20946;-81
2022/02/01 02:51:42;;;;;;;5.80;1.40;;;7.80;71.50;;;;;;2527379;54;20982;-81
2022/02/01 02:54:12;;;;;;;6.75;1.30;;;7.80;71.60;;;;;;2300494;54;21020;-80
2022/02/01 02:56:42;;;;;;;6.60;1.20;;;7.80;71.60;;;;;;2540092;54;20966;-82
2022/02/01 02:59:09;;;;;;;7.87;1.00;;;7.80;71.50;;;;;;2527486;54;21196;-81
2022/02/01 03:01:35;;;;;;;4.57;1.17;;;7.80;71.70;;;;;;2293710;54;20930;-82
2022/02/01 03:04:01;;;;;;;4.43;1.10;;;7.80;71.60;;;;;;2303400;54;21363;-80
2022/02/01 03:06:28;;;;;;;8.20;1.48;;;7.70;71.50;;;;;;2302112;54;21022;-81
2022/02/01 03:08:54;;;;;;;5.40;1.17;;;7.70;71.60;;;;;;2529431;54;20941;-81
2022/02/01 03:11:20;;;;;;;4.97;1.08;;;7.70;71.60;;;;;;2306114;54;20962;-81
2022/02/01 03:13:59;;;;;;;5.25;1.33;;;7.70;71.60;;;;;;2293388;54;20986;-81
2022/02/01 03:16:50;;;;;;;6.70;1.30;;;7.70;71.60;;;;;;2293593;54;21017;-82
2022/02/01 03:22:01;;;;;;;3.33;0.82;;;7.70;71.40;;;;;;2527226;54;20938;-82
2022/02/01 03:24:27;;;;;;;7.03;1.20;;;7.70;71.50;;;;;;2526848;54;20953;-82
2022/02/01 03:26:54;;;;;;;4.62;0.85;;;7.70;71.60;;;;;;2312457;54;21906;-82
2022/02/01 03:29:21;;;;;;;5.70;1.00;;;7.70;71.60;;;;;;2527059;54;20986;-82
2022/02/01 03:31:48;;;;;;;6.57;1.02;;;7.70;71.60;;;;;;2293996;54;22298;-82
2022/02/01 03:34:14;;;;;;;4.97;1.25;;;7.70;71.60;;;;;;2293202;54;20930;-80
2022/02/01 03:36:40;;;;;;;8.07;1.00;;;7.70;71.60;;;;;;2526987;54;20966;-81
2022/02/01 03:39:07;;;;;;;5.55;1.45;;;7.70;71.70;;;;;;2293872;54;21433;-81
2022/02/01 03:41:33;;;;;;;6.43;1.30;;;7.70;71.70;;;;;;2293904;54;20942;-80
2022/02/01 03:44:01;;;;;;;4.93;1.50;;;7.70;71.70;;;;;;2526823;54;21444;-80
2022/02/01 03:46:27;;;;;;;2.80;0.80;;;7.70;71.70;;;;;;2527469;54;20933;-81
2022/02/01 03:48:53;;;;;;;5.93;1.00;;;7.70;71.70;;;;;;2293336;54;20937;-81
2022/02/01 03:51:20;;;;;;;6.22;1.10;;;7.70;71.70;;;;;;2293683;54;20938;-80
2022/02/01 03:53:46;;;;;;;5.10;1.02;;;7.70;71.70;;;;;;2525803;54;20986;-80
2022/02/01 03:56:12;;;;;;;3.22;0.93;;;7.80;71.80;;;;;;2526153;54;20918;-81
2022/02/01 03:58:39;;;;;;;7.03;1.15;;;7.80;72.40;;;;;;2526888;54;20906;-82
2022/02/01 04:01:05;;;;;;;8.80;1.40;;;7.80;71.70;;;;;;2306938;54;20953;-81
2022/02/01 04:03:31;;;;;;;6.05;1.20;;;7.80;71.60;;;;;;2298110;54;20958;-82
2022/02/01 04:05:58;;;;;;;7.10;1.65;;;7.80;71.50;;;;;;2526779;54;20933;-81
2022/02/01 04:08:24;;;;;;;7.12;1.27;;;7.80;71.50;;;;;;2527101;54;21025;-81
2022/02/01 04:10:51;;;;;;;5.03;1.12;;;7.80;71.30;;;;;;2293406;54;20937;-81
2022/02/01 04:13:18;;;;;;;5.75;1.15;;;7.80;72.00;;;;;;2526702;54;21841;-81
2022/02/01 04:15:45;;;;;;;4.62;1.30;;;7.70;71.20;;;;;;2293723;54;20994;-82
2022/02/01 04:18:11;;;;;;;6.05;1.15;;;7.70;71.20;;;;;;2517794;54;20986;-85
2022/02/01 04:20:38;;;;;;;7.32;1.02;;;7.70;71.20;;;;;;2526300;54;22009;-82
2022/02/01 04:23:04;;;;;;;7.80;1.30;;;7.70;71.20;;;;;;2293555;54;21002;-81
2022/02/01 04:25:31;;;;;;;7.05;1.50;;;7.70;71.20;;;;;;2293635;54;20965;-81
2022/02/01 04:27:57;;;;;;;5.28;1.15;;;7.70;71.20;;;;;;2526959;54;20982;-81
2022/02/01 04:30:24;;;;;;;6.82;1.10;;;7.80;71.20;;;;;;2526260;54;20974;-81
2022/02/01 04:32:52;;;;;;;6.28;1.40;;;7.70;71.20;;;;;;2314212;54;20981;-81
2022/02/01 04:35:29;;;;;;;4.93;1.12;;;7.70;71.10;;;;;;2295003;54;20937;-81
2022/02/01 04:37:57;;;;;;;6.65;1.10;;;7.70;70.90;;;;;;2292260;54;21396;-81
2022/02/01 04:40:24;;;;;;;4.93;1.17;;;7.60;71.10;;;;;;2292484;54;20942;-81
2022/02/01 04:42:51;;;;;;;4.95;1.10;;;7.60;71.10;;;;;;2534878;54;20985;-81
2022/02/01 04:45:20;;;;;;;5.97;1.05;;;7.60;71.10;;;;;;2299125;54;20917;-81
2022/02/01 04:47:47;;;;;;;8.07;1.50;;;7.60;71.20;;;;;;2307976;54;21849;-81
2022/02/01 04:50:24;;;;;;;3.42;0.90;;;7.60;71.20;;;;;;2526114;54;20993;-81
2022/02/01 04:52:53;;;;;;;5.55;1.42;;;7.60;71.00;;;;;;2310226;54;21663;-81
2022/02/01 04:55:21;;;;;;;6.62;1.60;;;7.60;71.60;;;;;;2524863;54;20981;-81
2022/02/01 04:57:54;;;;;;;6.03;1.02;;;7.60;71.90;;;;;;2515562;54;21223;-80
2022/02/01 05:00:28;;;;;;;6.50;1.73;;;7.70;71.40;;;;;;2287896;55;20929;-81
2022/02/01 05:02:55;;;;;;;4.37;1.08;;;7.70;71.10;;;;;;2522384;54;20934;-80
2022/02/01 05:05:28;;;;;;;4.72;1.45;;;7.70;71.10;;;;;;2523876;54;21022;-81
2022/02/01 05:07:59;;;;;;;4.53;1.10;;;7.60;71.00;;;;;;2532957;54;20921;-81
2022/02/01 05:10:27;;;;;;;10.20;2.08;;;7.60;70.80;;;;;;2311082;54;20917;-81
2022/02/01 05:12:56;;;;;;;8.18;1.37;;;7.60;71.00;;;;;;2290909;54;20970;-82
2022/02/01 05:15:23;;;;;;;9.15;1.50;;;7.60;71.10;;;;;;2289679;54;21487;-81
2022/02/01 05:17:54;;;;;;;7.47;1.20;;;7.60;71.10;;;;;;2290075;54;21634;-81
2022/02/01 05:20:42;;;;;;;7.12;1.33;;;7.60;71.10;;;;;;2523777;54;20951;-81
2022/02/01 05:23:08;;;;;;;7.55;1.83;;;7.60;71.10;;;;;;2290746;54;21052;-81
2022/02/01 05:25:35;;;;;;;6.40;1.30;;;7.60;71.10;;;;;;2522936;54;20966;-81
2022/02/01 05:28:01;;;;;;;5.72;1.35;;;7.60;71.10;;;;;;2289693;54;20942;-81
2022/02/01 05:30:27;;;;;;;6.97;1.37;;;7.60;71.10;;;;;;2295710;54;21619;-81
2022/02/01 05:32:54;;;;;;;7.95;1.33;;;7.60;71.00;;;;;;2544122;54;20925;-80
2022/02/01 05:35:21;;;;;;;19.77;7.78;;;7.60;71.10;;;;;;2532066;53;21002;-81
2022/02/01 05:37:47;;;;;;;28.92;13.32;;;7.60;71.10;;;;;;2537341;54;21005;-81
2022/02/01 05:40:14;;;;;;;19.27;9.05;;;7.60;71.00;;;;;;2525854;54;20970;-80
2022/02/01 05:43:05;;;;;;;17.98;8.38;;;7.60;71.00;;;;;;2538326;54;20970;-81
2022/02/01 05:45:36;;;;;;;12.98;4.75;;;7.60;70.90;;;;;;2522547;54;20930;-80
2022/02/01 05:48:02;;;;;;;11.40;3.65;;;7.60;70.90;;;;;;2522985;54;20921;-81
2022/02/01 05:50:30;;;;;;;9.60;3.50;;;7.60;70.80;;;;;;2290429;54;20977;-81
2022/02/01 05:52:57;;;;;;;8.15;2.60;;;7.60;70.80;;;;;;2284344;55;20965;-82
2022/02/01 05:55:23;;;;;;;7.62;2.30;;;7.60;70.80;;;;;;2521286;54;20954;-82
2022/02/01 05:57:51;;;;;;;9.55;3.83;;;7.50;70.70;;;;;;2308109;54;20952;-81
2022/02/01 06:00:17;;;;;;;8.60;4.43;;;7.50;70.80;;;;;;2290233;54;21610;-81
2022/02/01 06:02:46;;;;;;;8.95;3.65;;;7.50;70.80;;;;;;2533947;54;21005;-81
2022/02/01 06:05:13;;;;;;;10.20;3.83;;;7.50;70.80;;;;;;2539720;53;20937;-80
2022/02/01 06:07:40;;;;;;;6.47;2.87;;;7.50;70.60;;;;;;2521166;54;21044;-81
2022/02/01 06:10:06;;;;;;;9.75;2.47;;;7.50;70.60;;;;;;2290920;54;20958;-81
2022/02/01 06:12:42;;;;;;;6.82;2.50;;;7.50;71.30;;;;;;2288803;54;21040;-81
2022/02/01 06:15:09;;;;;;;6.65;1.80;;;7.50;70.30;;;;;;2519159;54;20953;-81
2022/02/01 06:17:36;;;;;;;10.10;2.50;;;7.50;70.70;;;;;;2522419;54;21029;-81
2022/02/01 06:20:05;;;;;;;9.00;2.20;;;7.50;70.70;;;;;;2521757;54;20986;-80
2022/02/01 06:22:31;;;;;;;6.65;1.70;;;7.50;70.50;;;;;;2289914;54;21005;-81
2022/02/01 06:24:58;;;;;;;6.15;2.03;;;7.40;70.50;;;;;;2522087;54;21049;-80
2022/02/01 06:27:25;;;;;;;6.43;2.12;;;7.40;70.50;;;;;;2522377;54;20953;-82
2022/02/01 06:29:51;;;;;;;6.35;2.35;;;7.40;70.60;;;;;;2521132;54;21005;-80
2022/02/01 06:32:18;;;;;;;9.55;3.40;;;7.40;70.60;;;;;;2521948;54;20946;-82
2022/02/01 06:34:44;;;;;;;10.15;5.10;;;7.40;70.60;;;;;;2521597;54;21050;-82
2022/02/01 06:37:10;;;;;;;8.88;3.20;;;7.40;70.70;;;;;;2289726;54;21307;-82
2022/02/01 06:39:37;;;;;;;6.87;2.22;;;7.40;70.60;;;;;;2520988;54;21368;-81
2022/02/01 06:42:06;;;;;;;5.85;1.90;;;7.40;70.60;;;;;;2288691;54;21595;-82
2022/02/01 06:44:32;;;;;;;6.28;1.40;;;7.40;70.50;;;;;;2291118;54;21018;-81
2022/02/01 06:46:59;;;;;;;5.87;1.42;;;7.40;70.40;;;;;;2521637;54;20950;-81
2022/02/01 06:49:25;;;;;;;7.87;1.30;;;7.40;70.40;;;;;;2288723;54;21041;-81
2022/02/01 06:51:51;;;;;;;5.95;1.23;;;7.30;70.30;;;;;;2304658;54;20953;-80
2022/02/01 06:54:18;;;;;;;7.78;1.80;;;7.30;70.50;;;;;;2290101;54;21012;-82
2022/02/01 06:56:45;;;;;;;9.40;1.60;;;7.40;70.40;;;;;;2519481;54;21096;-82
2022/02/01 06:59:11;;;;;;;8.07;1.67;;;7.30;70.10;;;;;;2520627;54;20973;-80
2022/02/01 07:01:37;;;;;;;6.12;1.52;;;7.30;70.20;;;;;;2520395;54;20984;-80
2022/02/01 07:04:04;;;;;;;10.73;2.67;;;7.30;70.30;;;;;;2288643;54;20993;-81
2022/02/01 07:06:33;;;;;;;6.68;2.05;;;7.30;70.20;;;;;;2520494;54;21073;-80
2022/02/01 07:09:01;;;;;;;3.97;1.23;;;7.20;70.50;;;;;;2288039;54;21092;-81
2022/02/01 07:11:27;;;;;;;5.30;1.52;;;7.20;70.50;;;;;;2524543;54;21893;-81
2022/02/01 07:13:54;;;;;;;7.35;1.67;;;7.20;70.50;;;;;;2308010;54;21072;-81
2022/02/01 07:16:20;;;;;;;7.32;1.55;;;7.20;70.40;;;;;;2288225;54;21355;-81
2022/02/01 07:18:49;;;;;;;7.72;1.92;;;7.20;70.60;;;;;;2289060;54;21978;-81
2022/02/01 07:21:17;;;;;;;8.20;1.80;;;7.20;70.50;;;;;;2520474;54;20988;-82
2022/02/01 07:23:44;;;;;;;7.43;1.90;;;7.10;70.20;;;;;;2521702;54;20973;-81
2022/02/01 07:26:10;;;;;;;9.50;2.10;;;7.10;70.40;;;;;;2524566;54;21437;-82
2022/02/01 07:28:36;;;;;;;8.73;1.92;;;7.10;70.60;;;;;;2538851;54;21032;-81
2022/02/01 07:31:03;;;;;;;8.10;1.52;;;7.10;70.40;;;;;;2287832;54;21041;-81
2022/02/01 07:33:31;;;;;;;11.20;1.87;;;7.10;70.50;;;;;;2520365;54;20958;-81
2022/02/01 07:35:58;;;;;;;7.53;1.77;;;7.10;70.60;;;;;;2520012;54;21003;-82
2022/02/01 07:38:25;;;;;;;11.27;2.00;;;7.10;70.60;;;;;;2519985;54;21499;-81
2022/02/01 07:40:53;;;;;;;7.85;1.70;;;7.10;70.60;;;;;;2304753;54;20965;-81
2022/02/01 07:43:24;;;;;;;7.68;2.15;;;7.10;70.50;;;;;;2298149;54;20989;-81
2022/02/01 07:45:51;;;;;;;6.22;1.90;;;7.10;70.70;;;;;;2522682;54;21762;-81
2022/02/01 07:48:18;;;;;;;9.68;2.12;;;7.00;70.50;;;;;;2289069;54;21448;-82
2022/02/01 07:50:44;;;;;;;7.53;1.70;;;7.10;70.70;;;;;;2303981;54;21578;-81
2022/02/01 07:53:11;;;;;;;7.05;2.15;;;7.10;70.50;;;;;;2525929;54;20929;-82
2022/02/01 07:55:38;;;;;;;6.95;1.80;;;7.00;70.60;;;;;;2288325;54;20985;-82
2022/02/01 07:58:05;;;;;;;6.43;2.00;;;7.00;70.70;;;;;;2522365;54;21033;-81
2022/02/01 08:00:32;;;;;;;7.30;1.58;;;7.00;70.70;;;;;;2522206;54;20969;-81
2022/02/01 08:02:59;;;;;;;8.50;1.70;;;7.00;70.90;;;;;;2289332;54;21009;-81
2022/02/01 08:05:30;;;;;;;8.55;2.00;;;7.00;70.70;;;;;;2289072;54;20938;-80
2022/02/01 08:07:59;;;;;;;4.85;1.62;;;7.00;70.80;;;;;;2522520;54;20953;-81
2022/02/01 08:10:29;;;;;;;7.70;2.17;;;6.90;70.80;;;;;;2523205;54;20992;-81
2022/02/01 08:13:18;;;;;;;9.30;2.17;;;7.10;70.80;;;;;;2522080;54;20946;-80
2022/02/01 08:16:30;;;;;;;12.55;2.72;;;7.10;71.00;;;;;;2516063;54;22040;-81
2022/02/01 08:21:50;;;;;;;8.52;2.10;;;7.10;70.70;;;;;;2536079;54;20934;-81
2022/02/01 08:24:16;;;;;;;8.30;1.65;;;7.20;71.00;;;;;;2522224;54;20905;-80
2022/02/01 08:26:43;;;;;;;5.95;1.73;;;7.10;71.20;;;;;;2522351;54;21004;-81
2022/02/01 08:29:09;;;;;;;6.37;2.20;;;7.10;71.40;;;;;;2521385;54;20973;-81
2022/02/01 08:31:44;;;;;;;8.95;2.40;;;7.10;71.40;;;;;;2521864;54;21069;-82
2022/02/01 08:34:11;;;;;;;7.80;2.45;;;7.20;71.60;;;;;;2520094;54;20993;-81
2022/02/01 08:36:37;;;;;;;9.40;2.70;;;7.20;71.70;;;;;;2305936;54;20993;-81
2022/02/01 08:39:03;;;;;;;7.87;2.92;;;7.20;71.20;;;;;;2521345;54;20970;-81
2022/02/01 08:41:30;;;;;;;11.45;3.20;;;7.30;71.70;;;;;;2521959;54;20934;-81
2022/02/01 08:43:56;;;;;;;5.85;2.47;;;7.30;71.60;;;;;;2521769;54;20940;-81
2022/02/01 08:46:23;;;;;;;7.65;2.22;;;7.40;72.00;;;;;;2522379;54;21016;-81
2022/02/01 08:48:49;;;;;;;7.25;2.30;;;7.40;71.80;;;;;;2522306;54;20962;-81
2022/02/01 08:51:18;;;;;;;6.03;2.00;;;7.40;71.80;;;;;;2522072;54;21001;-82
2022/02/01 08:53:55;;;;;;;5.25;1.87;;;7.50;72.10;;;;;;2522454;54;21009;-81
2022/02/01 08:59:22;;;;;;;8.07;2.15;;;7.60;72.30;;;;;;2520121;54;20970;-80
2022/02/01 09:01:48;;;;;;;10.75;2.35;;;7.70;72.10;;;;;;2520394;54;20945;-81
2022/02/01 09:04:15;;;;;;;10.40;3.35;;;7.70;71.90;;;;;;2527004;54;20961;-80
2022/02/01 09:06:41;;;;;;;7.47;2.30;;;7.70;71.60;;;;;;2541653;54;21479;-81
2022/02/01 09:09:07;;;;;;;10.82;3.10;;;7.80;71.60;;;;;;2290184;54;20973;-81
2022/02/01 09:11:33;;;;;;;8.00;2.55;;;7.80;71.50;;;;;;2521415;54;20950;-80
2022/02/01 09:14:00;;;;;;;9.15;2.80;;;7.80;71.40;;;;;;2287830;54;21038;-81
2022/02/01 09:16:26;;;;;;;10.35;2.37;;;7.80;71.30;;;;;;2520834;54;21015;-81
2022/02/01 09:18:54;;;;;;;5.07;1.62;;;7.80;71.20;;;;;;2522104;54;20906;-80
2022/02/01 09:21:20;;;;;;;9.10;2.50;;;7.90;71.40;;;;;;2523224;54;21488;-80
2022/02/01 09:23:47;;;;;;;8.75;2.10;;;7.90;71.60;;;;;;2291399;54;21005;-80
2022/02/01 09:26:13;;;;;;;6.50;2.47;;;8.00;71.50;;;;;;2289381;54;20930;-80
2022/02/01 09:28:39;;;;;;;7.45;2.20;;;8.00;71.00;;;;;;2522207;54;20913;-81
2022/02/01 09:31:06;;;;;;;7.50;1.85;;;8.00;71.20;;;;;;2290365;54;20974;-80
2022/02/01 09:33:32;;;;;;;6.50;1.67;;;8.00;71.20;;;;;;2290409;54;20929;-81
2022/02/01 09:35:58;;;;;;;5.78;1.62;;;8.10;71.60;;;;;;2523930;54;20921;-80
2022/02/01 09:38:30;;;;;;;5.70;2.10;;;8.10;71.60;;;;;;2290088;54;21096;-81
2022/02/01 09:40:58;;;;;;;9.10;2.35;;;8.10;71.40;;;;;;2497439;54;1402374;-79
2022/02/01 09:43:24;;;;;;;8.85;2.60;;;8.20;71.00;;;;;;2522909;54;20989;-80
2022/02/01 09:45:54;;;;;;;9.05;2.50;;;8.20;70.20;;;;;;2523123;54;20970;-80
2022/02/01 09:48:32;;;;;;;5.87;1.75;;;8.20;70.30;;;;;;2521620;54;20958;-81
2022/02/01 09:51:01;;;;;;;7.87;3.12;;;8.20;70.60;;;;;;2522598;54;21021;-81
2022/02/01 09:53:27;;;;;;;10.35;2.22;;;8.20;70.60;;;;;;2306631;54;20945;-81
2022/02/01 09:55:53;;;;;;;10.00;1.85;;;8.20;70.60;;;;;;2291011;54;20953;-81
2022/02/01 09:58:31;;;;;;;9.68;2.05;;;8.20;70.40;;;;;;2289606;54;20925;-81
2022/02/01 10:00:57;;;;;;;10.02;2.03;;;8.20;69.70;;;;;;2522803;54;20981;-81
2022/02/01 10:03:24;;;;;;;6.57;1.98;;;8.10;70.00;;;;;;2525040;54;21001;-80
2022/02/01 10:06:07;;;;;;;8.55;2.33;;;8.20;70.20;;;;;;2300776;54;20966;-81
2022/02/01 10:08:34;;;;;;;7.40;1.83;;;8.20;69.50;;;;;;2522897;54;20966;-80
2022/02/01 10:11:00;;;;;;;7.35;1.75;;;8.20;70.00;;;;;;2290162;54;21006;-81
2022/02/01 10:13:27;;;;;;;8.35;1.87;;;8.20;70.20;;;;;;2290332;54;20942;-81
2022/02/01 10:16:43;;;;;;;7.78;1.67;;;8.20;70.40;;;;;;2523062;54;21093;-81
2022/02/01 10:19:11;;;;;;;6.20;1.67;;;8.20;70.30;;;;;;2284921;55;20949;-80
2022/02/01 10:21:54;;;;;;;6.43;1.58;;;8.20;70.30;;;;;;2303868;54;20985;-80
2022/02/01 10:24:30;;;;;;;6.80;2.00;;;8.20;70.00;;;;;;2525570;54;20977;-80
2022/02/01 10:27:13;;;;;;;6.40;1.85;;;8.30;70.10;;;;;;2522852;54;21464;-81
2022/02/01 10:30:18;;;;;;;9.70;1.92;;;8.30;70.30;;;;;;2523223;54;21012;-81
2022/02/01 10:33:18;;;;;;;8.20;1.92;;;8.30;69.80;;;;;;2289667;54;21350;-81
2022/02/01 10:35:56;;;;;;;7.15;2.10;;;8.30;70.10;;;;;;2522722;54;20902;-81
2022/02/01 10:38:23;;;;;;;9.23;1.60;;;8.30;70.00;;;;;;2289850;54;20966;-80
2022/02/01 10:40:50;;;;;;;8.70;2.17;;;8.30;70.30;;;;;;2522728;54;21005;-80
2022/02/01 10:43:34;;;;;;;6.35;1.83;;;8.30;70.30;;;;;;2522847;54;20978;-80
2022/02/01 10:46:12;;;;;;;11.15;2.45;;;8.30;70.20;;;;;;2289735;54;21389;-81
2022/02/01 10:48:45;;;;;;;8.02;2.10;;;8.30;69.80;;;;;;2285535;55;21838;-81
2022/02/01 10:51:22;;;;;;;6.47;2.40;;;8.30;70.00;;;;;;2522662;54;20970;-81
2022/02/01 10:53:49;;;;;;;12.27;2.70;;;8.30;69.80;;;;;;2522667;54;21790;-81
2022/02/01 10:56:19;;;;;;;8.55;2.05;;;8.30;69.80;;;;;;2523063;54;20910;-81
2022/02/01 10:58:47;;;;;;;9.73;2.08;;;8.30;70.10;;;;;;2522634;54;21078;-80
2022/02/01 11:01:14;;;;;;;4.28;1.50;;;8.30;70.30;;;;;;2290004;54;20901;-80
2022/02/01 11:03:42;;;;;;;7.53;2.22;;;8.30;70.10;;;;;;2289757;54;20942;-81
2022/02/01 11:06:09;;;;;;;7.07;1.60;;;8.30;70.00;;;;;;2290046;54;20950;-81
2022/02/01 11:08:38;;;;;;;7.37;1.95;;;8.30;70.20;;;;;;2522635;54;20965;-80
2022/02/01 11:11:05;;;;;;;8.38;2.28;;;8.30;70.10;;;;;;2522933;54;20985;-80
2022/02/01 11:13:42;;;;;;;7.07;1.83;;;8.40;70.10;;;;;;2523399;54;20994;-81
2022/02/01 11:16:17;;;;;;;6.80;1.80;;;8.40;69.80;;;;;;2523543;54;21944;-81
2022/02/01 11:19:00;;;;;;;13.35;2.45;;;8.40;69.90;;;;;;2523912;54;21330;-80
2022/02/01 11:21:26;;;;;;;8.43;2.00;;;8.40;68.90;;;;;;2523384;54;20946;-81
2022/02/01 11:24:02;;;;;;;6.40;2.17;;;8.30;69.60;;;;;;2294025;54;21100;-80
2022/02/01 11:26:39;;;;;;;5.85;1.95;;;8.30;69.70;;;;;;2536111;54;20981;-80
2022/02/01 11:29:28;;;;;;;5.78;1.52;;;8.30;69.60;;;;;;2289783;54;24805;-81
2022/02/01 11:31:57;;;;;;;6.05;1.65;;;8.30;69.10;;;;;;2288414;54;21335;-80
2022/02/01 11:34:41;;;;;;;7.35;1.90;;;8.20;68.90;;;;;;2521417;54;21017;-80
2022/02/01 11:37:10;;;;;;;4.90;1.52;;;8.20;67.50;;;;;;2289871;54;20988;-80
2022/02/01 11:39:49;;;;;;;8.90;2.28;;;8.10;68.20;;;;;;2289872;54;21327;-80
2022/02/01 11:42:16;;;;;;;8.25;2.30;;;7.90;67.60;;;;;;2285298;55;21006;-80
2022/02/01 11:44:42;;;;;;;7.22;2.08;;;8.00;68.40;;;;;;2289116;54;21029;-80
2022/02/01 11:47:20;;;;;;;7.60;2.47;;;8.00;68.00;;;;;;2294766;54;21035;-80
2022/02/01 11:49:57;;;;;;;8.57;2.22;;;7.90;67.50;;;;;;2286354;55;20926;-81
2022/02/01 11:52:24;;;;;;;8.15;2.85;;;7.90;67.00;;;;;;2522749;54;21848;-80
2022/02/01 11:55:14;;;;;;;8.75;2.40;;;7.90;67.40;;;;;;2289257;54;21445;-80
2022/02/01 11:58:03;;;;;;;10.63;2.95;;;7.80;67.70;;;;;;2289146;54;20953;-80
2022/02/01 12:00:36;;;;;;;6.53;1.85;;;7.80;66.70;;;;;;2290633;54;20985;-81
2022/02/01 12:03:02;;;;;;;6.57;2.00;;;7.70;67.50;;;;;;2300771;54;20913;-80
2022/02/01 12:05:34;;;;;;;8.60;1.73;;;7.70;66.80;;;;;;2307936;54;20953;-81
2022/02/01 12:08:07;;;;;;;8.75;2.28;;;7.70;67.40;;;;;;2526862;54;20930;-81
2022/02/01 12:10:45;;;;;;;6.15;1.73;;;7.60;67.50;;;;;;2522113;54;21436;-80
2022/02/01 12:13:12;;;;;;;6.62;1.77;;;7.60;67.70;;;;;;2288704;54;20941;-81
2022/02/01 12:15:39;;;;;;;10.27;2.12;;;7.60;67.80;;;;;;2289017;54;20934;-81
2022/02/01 12:19:02;;;;;;;7.05;2.60;;;7.60;68.00;;;;;;2288593;54;20970;-81
2022/02/01 12:26:35;;;;;;;11.77;2.50;;;7.60;67.60;;;;;;2289031;54;21907;-81
2022/02/01 12:29:03;;;;;;;9.38;2.50;;;7.60;67.30;;;;;;2521552;54;20994;-80
2022/02/01 12:31:31;;;;;;;7.93;1.98;;;7.60;67.50;;;;;;2290297;54;20966;-81
2022/02/01 12:33:59;;;;;;;7.40;1.95;;;7.60;67.30;;;;;;2289262;54;21004;-80
2022/02/01 12:36:31;;;;;;;8.32;2.20;;;7.60;67.10;;;;;;2522743;54;20938;-82
2022/02/01 12:39:23;;;;;;;8.00;2.37;;;7.60;66.90;;;;;;2299977;54;20985;-80
2022/02/01 12:41:55;;;;;;;7.43;2.03;;;7.50;67.50;;;;;;2301135;54;20942;-81
2022/02/01 12:47:33;;;;;;;6.57;1.83;;;7.50;66.90;;;;;;2288087;54;20984;-81
2022/02/01 12:50:11;;;;;;;7.68;2.17;;;7.50;67.40;;;;;;2288977;54;20934;-80
2022/02/01 12:52:38;;;;;;;6.53;1.77;;;7.50;68.20;;;;;;2289494;54;20945;-80
2022/02/01 12:55:13;;;;;;;6.50;1.60;;;7.50;67.90;;;;;;2294127;54;20957;-81
2022/02/01 12:57:52;;;;;;;10.10;2.85;;;7.50;67.30;;;;;;2536076;54;20914;-80
2022/02/01 13:00:23;;;;;;;7.00;1.87;;;7.50;67.30;;;;;;2522441;54;21009;-81
2022/02/01 13:02:56;;;;;;;5.37;1.83;;;7.50;67.40;;;;;;2523277;54;20894;-80
2022/02/01 13:05:22;;;;;;;8.13;2.25;;;7.50;67.50;;;;;;2521813;54;21502;-80
2022/02/01 13:08:22;;;;;;;7.25;2.00;;;7.50;67.80;;;;;;2523734;54;21025;-80
2022/02/01 13:21:43;;;;;;;4.78;1.17;;;7.60;67.70;;;;;;2290688;54;20986;-80
2022/02/01 13:24:11;;;;;;;3.67;1.50;;;7.60;68.10;;;;;;2288835;54;20961;-80
2022/02/01 13:26:48;;;;;;;7.65;1.40;;;7.60;67.80;;;;;;2290299;54;21023;-82
2022/02/01 13:29:15;;;;;;;7.28;1.50;;;7.70;68.60;;;;;;2522024;54;20922;-81
2022/02/01 13:31:50;;;;;;;3.90;1.30;;;7.70;68.50;;;;;;2537630;54;22181;-81
2022/02/01 13:34:23;;;;;;;8.43;1.80;;;7.70;68.10;;;;;;2290114;54;21452;-80
2022/02/01 13:36:51;;;;;;;9.20;1.77;;;7.70;67.50;;;;;;2521997;54;21189;-80
2022/02/01 13:39:51;;;;;;;5.10;1.50;;;7.70;68.10;;;;;;2521630;54;21028;-80
2022/02/01 13:42:18;;;;;;;7.37;2.17;;;7.70;66.80;;;;;;2521101;54;21838;-81
2022/02/01 13:44:58;;;;;;;6.40;1.37;;;7.70;67.80;;;;;;2534057;54;21005;-79
2022/02/01 13:47:41;;;;;;;7.85;2.00;;;7.70;67.30;;;;;;2295746;54;21558;-81
2022/02/01 13:50:09;;;;;;;7.07;1.95;;;7.80;66.50;;;;;;2289053;54;21096;-81
2022/02/01 13:52:36;;;;;;;8.10;1.83;;;7.70;67.20;;;;;;2289251;54;20937;-81
2022/02/01 13:55:03;;;;;;;6.78;1.83;;;7.70;67.30;;;;;;2527084;54;20961;-81
2022/02/01 13:57:31;;;;;;;6.85;2.00;;;7.70;67.40;;;;;;2513646;54;21068;-80
2022/02/01 14:00:07;;;;;;;5.82;1.50;;;7.70;67.10;;;;;;2522526;54;21486;-81
2022/02/01 14:02:38;;;;;;;8.77;1.92;;;7.70;66.40;;;;;;2524102;54;21331;-81
2022/02/01 14:05:14;;;;;;;8.07;2.10;;;7.80;67.10;;;;;;2284814;55;21338;-80
2022/02/01 14:08:53;;;;;;;6.45;2.03;;;7.70;66.90;;;;;;2290715;54;21463;-81
2022/02/01 14:28:55;;;;;;;10.02;1.90;;;7.70;66.60;;;;;;2289162;54;20937;-81
2022/02/01 14:34:21;;;;;;;5.68;1.60;;;7.70;66.40;;;;;;2523031;54;20922;-80
2022/02/01 14:36:51;;;;;;;4.43;1.80;;;7.60;66.40;;;;;;2521757;54;20950;-80
2022/02/01 14:47:18;;;;;;;4.85;1.75;;;7.60;66.90;;;;;;2520690;54;20938;-80
2022/02/01 14:49:48;;;;;;;8.25;1.77;;;7.60;67.10;;;;;;2522418;54;20946;-80
2022/02/01 14:52:15;;;;;;;7.65;1.87;;;7.60;67.10;;;;;;2308259;54;20993;-81
2022/02/01 14:54:50;;;;;;;5.22;1.58;;;7.60;67.20;;;;;;2289963;54;21380;-80
2022/02/01 15:21:17;;;;;;;4.75;1.60;;;7.40;66.50;;;;;;2521358;54;20965;-80
2022/02/01 15:23:43;;;;;;;8.90;1.83;;;7.20;67.20;;;;;;2288317;54;21005;-80
2022/02/01 15:26:09;;;;;;;11.48;2.15;;;7.10;67.30;;;;;;2288429;54;20938;-80
2022/02/01 15:28:35;;;;;;;5.22;1.60;;;7.10;67.60;;;;;;2521007;54;20926;-81
2022/02/01 15:31:11;;;;;;;5.47;1.80;;;7.10;67.90;;;;;;2512875;54;21001;-80
2022/02/01 15:33:38;;;;;;;5.60;1.83;;;7.00;68.00;;;;;;2521451;54;20970;-80
2022/02/01 15:36:05;;;;;;;8.68;2.37;;;7.00;67.90;;;;;;2519915;54;25420;-81